sensor_id;sensor_type;location;lat;lon;timestamp;temperature;humidity
17178;DHT22;8704;52.006;4.374;2022-09-24T00:01:47;14.20;99.90
17178;DHT22;8704;52.006;4.374;2022-09-24T00:04:17;14.20;99.90
17178;DHT22;8704;52.006;4.374;2022-09-24T00:06:46;14.20;99.90
17178;DHT22;8704;52.006;4.374;2022-09-24T00:09:16;14.20;99.90
17178;DHT22;8704;52.006;4.374;2022-09-24T00:11:47;14.30;99.90
17178;DHT22;8704;52.006;4.374;2022-09-24T00:14:17;14.30;99.90
17178;DHT22;8704;52.006;4.374;2022-09-24T00:16:45;14.20;99.90
17178;DHT22;8704;52.006;4.374;2022-09-24T00:19:13;14.20;99.90
17178;DHT22;8704;52.006;4.374;2022-09-24T00:21:41;14.20;99.90
17178;DHT22;8704;52.006;4.374;2022-09-24T00:24:12;14.20;99.90
17178;DHT22;8704;52.006;4.374;2022-09-24T00:27:02;14.30;99.90
17178;DHT22;8704;52.006;4.374;2022-09-24T00:29:30;14.20;99.90
17178;DHT22;8704;52.006;4.374;2022-09-24T00:32:01;14.20;99.90
17178;DHT22;8704;52.006;4.374;2022-09-24T00:34:29;14.20;99.90
17178;DHT22;8704;52.006;4.374;2022-09-24T00:36:57;14.30;99.90
17178;DHT22;8704;52.006;4.374;2022-09-24T00:39:25;14.30;99.90
17178;DHT22;8704;52.006;4.374;2022-09-24T00:41:53;14.20;99.90
17178;DHT22;8704;52.006;4.374;2022-09-24T00:44:48;14.20;99.90
17178;DHT22;8704;52.006;4.374;2022-09-24T00:47:28;14.20;99.90
17178;DHT22;8704;52.006;4.374;2022-09-24T00:50:05;14.20;99.90
17178;DHT22;8704;52.006;4.374;2022-09-24T00:52:35;14.20;99.90
17178;DHT22;8704;52.006;4.374;2022-09-24T00:55:06;14.20;99.90
17178;DHT22;8704;52.006;4.374;2022-09-24T00:57:36;14.20;99.90
17178;DHT22;8704;52.006;4.374;2022-09-24T01:00:08;14.20;99.90
17178;DHT22;8704;52.006;4.374;2022-09-24T01:02:37;14.20;99.90
17178;DHT22;8704;52.006;4.374;2022-09-24T01:05:07;14.20;99.90
17178;DHT22;8704;52.006;4.374;2022-09-24T01:07:36;14.20;99.90
17178;DHT22;8704;52.006;4.374;2022-09-24T01:10:04;14.20;99.90
17178;DHT22;8704;52.006;4.374;2022-09-24T01:12:38;14.20;99.90
17178;DHT22;8704;52.006;4.374;2022-09-24T01:15:16;14.20;99.90
17178;DHT22;8704;52.006;4.374;2022-09-24T01:17:50;14.20;99.90
17178;DHT22;8704;52.006;4.374;2022-09-24T01:20:46;14.20;99.90
17178;DHT22;8704;52.006;4.374;2022-09-24T01:23:43;14.20;99.90
17178;DHT22;8704;52.006;4.374;2022-09-24T01:26:30;14.10;99.90
17178;DHT22;8704;52.006;4.374;2022-09-24T01:29:16;14.10;99.90
17178;DHT22;8704;52.006;4.374;2022-09-24T01:31:52;14.10;99.90
17178;DHT22;8704;52.006;4.374;2022-09-24T01:34:27;14.20;99.90
17178;DHT22;8704;52.006;4.374;2022-09-24T01:36:57;14.20;99.90
17178;DHT22;8704;52.006;4.374;2022-09-24T01:39:26;14.20;99.90
17178;DHT22;8704;52.006;4.374;2022-09-24T01:41:55;14.10;99.90
17178;DHT22;8704;52.006;4.374;2022-09-24T01:44:24;14.10;99.90
17178;DHT22;8704;52.006;4.374;2022-09-24T01:46:53;14.20;99.90
17178;DHT22;8704;52.006;4.374;2022-09-24T01:49:21;14.20;99.90
17178;DHT22;8704;52.006;4.374;2022-09-24T01:51:51;14.20;99.90
17178;DHT22;8704;52.006;4.374;2022-09-24T01:54:24;14.20;99.90
17178;DHT22;8704;52.006;4.374;2022-09-24T01:57:09;14.10;99.90
17178;DHT22;8704;52.006;4.374;2022-09-24T01:59:41;14.20;99.90
17178;DHT22;8704;52.006;4.374;2022-09-24T02:02:15;14.10;99.90
17178;DHT22;8704;52.006;4.374;2022-09-24T02:04:50;14.50;99.90
17178;DHT22;8704;52.006;4.374;2022-09-24T02:07:23;14.10;99.90
17178;DHT22;8704;52.006;4.374;2022-09-24T02:09:51;14.10;99.90
17178;DHT22;8704;52.006;4.374;2022-09-24T02:12:22;14.10;99.90
17178;DHT22;8704;52.006;4.374;2022-09-24T02:14:56;14.10;99.90
17178;DHT22;8704;52.006;4.374;2022-09-24T02:17:30;14.10;99.90
17178;DHT22;8704;52.006;4.374;2022-09-24T02:20:02;14.10;99.90
17178;DHT22;8704;52.006;4.374;2022-09-24T02:22:31;14.10;99.90
17178;DHT22;8704;52.006;4.374;2022-09-24T02:25:01;14.20;99.90
17178;DHT22;8704;52.006;4.374;2022-09-24T02:27:30;14.10;99.90
17178;DHT22;8704;52.006;4.374;2022-09-24T02:30:00;14.10;99.90
17178;DHT22;8704;52.006;4.374;2022-09-24T02:32:31;14.10;99.90
17178;DHT22;8704;52.006;4.374;2022-09-24T02:35:02;14.10;99.90
17178;DHT22;8704;52.006;4.374;2022-09-24T02:37:34;14.10;99.90
17178;DHT22;8704;52.006;4.374;2022-09-24T02:40:04;14.10;99.90
17178;DHT22;8704;52.006;4.374;2022-09-24T02:42:34;14.10;99.90
17178;DHT22;8704;52.006;4.374;2022-09-24T02:45:04;14.10;99.90
17178;DHT22;8704;52.006;4.374;2022-09-24T02:47:33;14.10;99.90
17178;DHT22;8704;52.006;4.374;2022-09-24T02:50:01;14.10;99.90
17178;DHT22;8704;52.006;4.374;2022-09-24T02:52:28;14.10;99.90
17178;DHT22;8704;52.006;4.374;2022-09-24T02:54:56;14.10;99.90
17178;DHT22;8704;52.006;4.374;2022-09-24T02:57:24;14.10;99.90
17178;DHT22;8704;52.006;4.374;2022-09-24T02:59:52;14.10;99.90
17178;DHT22;8704;52.006;4.374;2022-09-24T03:02:21;14.10;99.90
17178;DHT22;8704;52.006;4.374;2022-09-24T03:04:49;14.10;99.90
17178;DHT22;8704;52.006;4.374;2022-09-24T03:07:17;14.10;99.90
17178;DHT22;8704;52.006;4.374;2022-09-24T03:09:47;14.10;99.90
17178;DHT22;8704;52.006;4.374;2022-09-24T03:12:15;14.10;99.90
17178;DHT22;8704;52.006;4.374;2022-09-24T03:14:43;14.10;99.90
17178;DHT22;8704;52.006;4.374;2022-09-24T03:17:11;14.00;99.90
17178;DHT22;8704;52.006;4.374;2022-09-24T03:19:40;14.10;99.90
17178;DHT22;8704;52.006;4.374;2022-09-24T03:22:08;14.10;99.90
17178;DHT22;8704;52.006;4.374;2022-09-24T03:24:36;14.10;99.90
17178;DHT22;8704;52.006;4.374;2022-09-24T03:27:03;14.10;99.90
17178;DHT22;8704;52.006;4.374;2022-09-24T03:29:31;14.10;99.90
17178;DHT22;8704;52.006;4.374;2022-09-24T03:32:16;14.10;99.90
17178;DHT22;8704;52.006;4.374;2022-09-24T03:34:46;14.10;99.90
17178;DHT22;8704;52.006;4.374;2022-09-24T03:37:14;14.10;99.90
17178;DHT22;8704;52.006;4.374;2022-09-24T03:39:41;14.10;99.90
17178;DHT22;8704;52.006;4.374;2022-09-24T03:42:09;14.10;99.90
17178;DHT22;8704;52.006;4.374;2022-09-24T03:44:37;14.10;99.90
17178;DHT22;8704;52.006;4.374;2022-09-24T03:47:05;14.10;99.90
17178;DHT22;8704;52.006;4.374;2022-09-24T03:49:33;14.10;99.90
17178;DHT22;8704;52.006;4.374;2022-09-24T03:52:03;14.10;99.90
17178;DHT22;8704;52.006;4.374;2022-09-24T03:54:30;14.10;99.90
17178;DHT22;8704;52.006;4.374;2022-09-24T03:56:58;14.10;99.90
17178;DHT22;8704;52.006;4.374;2022-09-24T03:59:26;14.10;99.90
17178;DHT22;8704;52.006;4.374;2022-09-24T04:01:54;14.10;99.90
17178;DHT22;8704;52.006;4.374;2022-09-24T04:04:22;14.10;99.90
17178;DHT22;8704;52.006;4.374;2022-09-24T04:06:50;14.10;99.90
17178;DHT22;8704;52.006;4.374;2022-09-24T04:09:20;14.20;99.90
17178;DHT22;8704;52.006;4.374;2022-09-24T04:11:48;14.10;99.90
17178;DHT22;8704;52.006;4.374;2022-09-24T04:14:18;14.10;99.90
17178;DHT22;8704;52.006;4.374;2022-09-24T04:16:46;14.10;99.90
17178;DHT22;8704;52.006;4.374;2022-09-24T04:19:14;14.10;99.90
17178;DHT22;8704;52.006;4.374;2022-09-24T04:21:42;14.10;99.90
17178;DHT22;8704;52.006;4.374;2022-09-24T04:24:10;14.10;99.90
17178;DHT22;8704;52.006;4.374;2022-09-24T04:26:39;14.10;99.90
17178;DHT22;8704;52.006;4.374;2022-09-24T04:29:07;14.10;99.90
17178;DHT22;8704;52.006;4.374;2022-09-24T04:31:35;14.10;99.90
17178;DHT22;8704;52.006;4.374;2022-09-24T04:34:04;14.10;99.90
17178;DHT22;8704;52.006;4.374;2022-09-24T04:36:32;14.10;99.90
17178;DHT22;8704;52.006;4.374;2022-09-24T04:39:00;14.10;99.90
17178;DHT22;8704;52.006;4.374;2022-09-24T04:41:28;14.10;99.90
17178;DHT22;8704;52.006;4.374;2022-09-24T04:43:58;14.10;99.90
17178;DHT22;8704;52.006;4.374;2022-09-24T04:46:26;14.10;99.90
17178;DHT22;8704;52.006;4.374;2022-09-24T04:48:54;14.10;99.90
17178;DHT22;8704;52.006;4.374;2022-09-24T04:51:21;14.10;99.90
17178;DHT22;8704;52.006;4.374;2022-09-24T04:53:49;14.10;99.90
17178;DHT22;8704;52.006;4.374;2022-09-24T04:56:17;14.00;99.90
17178;DHT22;8704;52.006;4.374;2022-09-24T04:58:49;14.00;99.90
17178;DHT22;8704;52.006;4.374;2022-09-24T05:01:19;14.00;99.90
17178;DHT22;8704;52.006;4.374;2022-09-24T05:03:47;14.10;99.90
17178;DHT22;8704;52.006;4.374;2022-09-24T05:06:15;14.00;99.90
17178;DHT22;8704;52.006;4.374;2022-09-24T05:08:43;14.10;99.90
17178;DHT22;8704;52.006;4.374;2022-09-24T05:11:11;14.10;99.90
17178;DHT22;8704;52.006;4.374;2022-09-24T05:13:39;14.10;99.90
17178;DHT22;8704;52.006;4.374;2022-09-24T05:16:07;14.10;99.90
17178;DHT22;8704;52.006;4.374;2022-09-24T05:18:36;14.10;99.90
17178;DHT22;8704;52.006;4.374;2022-09-24T05:21:05;14.10;99.90
17178;DHT22;8704;52.006;4.374;2022-09-24T05:23:32;14.10;99.90
17178;DHT22;8704;52.006;4.374;2022-09-24T05:26:00;14.10;99.90
17178;DHT22;8704;52.006;4.374;2022-09-24T05:28:45;14.10;99.90
17178;DHT22;8704;52.006;4.374;2022-09-24T05:31:13;14.10;99.90
17178;DHT22;8704;52.006;4.374;2022-09-24T05:33:42;14.10;99.90
17178;DHT22;8704;52.006;4.374;2022-09-24T05:36:10;14.10;99.90
17178;DHT22;8704;52.006;4.374;2022-09-24T05:38:38;14.10;99.90
17178;DHT22;8704;52.006;4.374;2022-09-24T05:41:07;14.10;99.90
17178;DHT22;8704;52.006;4.374;2022-09-24T05:43:35;14.10;99.90
17178;DHT22;8704;52.006;4.374;2022-09-24T05:46:03;14.10;99.90
17178;DHT22;8704;52.006;4.374;2022-09-24T05:48:32;14.10;99.90
17178;DHT22;8704;52.006;4.374;2022-09-24T05:51:01;14.10;99.90
17178;DHT22;8704;52.006;4.374;2022-09-24T05:53:29;14.00;99.90
17178;DHT22;8704;52.006;4.374;2022-09-24T05:55:57;14.00;99.90
17178;DHT22;8704;52.006;4.374;2022-09-24T05:58:25;14.00;99.90
17178;DHT22;8704;52.006;4.374;2022-09-24T06:00:53;14.00;99.90
17178;DHT22;8704;52.006;4.374;2022-09-24T06:03:21;14.00;99.90
17178;DHT22;8704;52.006;4.374;2022-09-24T06:05:49;14.00;99.90
17178;DHT22;8704;52.006;4.374;2022-09-24T06:08:19;14.00;99.90
17178;DHT22;8704;52.006;4.374;2022-09-24T06:10:47;14.00;99.90
17178;DHT22;8704;52.006;4.374;2022-09-24T06:13:17;14.00;99.90
17178;DHT22;8704;52.006;4.374;2022-09-24T06:15:46;14.10;99.90
17178;DHT22;8704;52.006;4.374;2022-09-24T06:18:14;14.60;99.90
17178;DHT22;8704;52.006;4.374;2022-09-24T06:20:42;14.00;99.90
17178;DHT22;8704;52.006;4.374;2022-09-24T06:23:10;14.00;99.90
17178;DHT22;8704;52.006;4.374;2022-09-24T06:25:39;14.00;99.90
17178;DHT22;8704;52.006;4.374;2022-09-24T06:28:07;14.00;99.90
17178;DHT22;8704;52.006;4.374;2022-09-24T06:30:37;14.00;99.90
17178;DHT22;8704;52.006;4.374;2022-09-24T06:33:07;14.00;99.90
17178;DHT22;8704;52.006;4.374;2022-09-24T06:35:36;14.00;99.90
17178;DHT22;8704;52.006;4.374;2022-09-24T06:38:05;14.00;99.90
17178;DHT22;8704;52.006;4.374;2022-09-24T06:40:33;13.90;99.90
17178;DHT22;8704;52.006;4.374;2022-09-24T06:43:05;14.00;99.90
17178;DHT22;8704;52.006;4.374;2022-09-24T06:45:36;14.00;99.90
17178;DHT22;8704;52.006;4.374;2022-09-24T06:48:05;13.90;99.90
17178;DHT22;8704;52.006;4.374;2022-09-24T06:50:34;14.00;99.90
17178;DHT22;8704;52.006;4.374;2022-09-24T06:53:04;14.00;99.90
17178;DHT22;8704;52.006;4.374;2022-09-24T06:55:32;14.10;99.90
17178;DHT22;8704;52.006;4.374;2022-09-24T06:58:04;14.10;99.90
17178;DHT22;8704;52.006;4.374;2022-09-24T07:00:33;14.10;99.90
17178;DHT22;8704;52.006;4.374;2022-09-24T07:03:01;14.10;99.90
17178;DHT22;8704;52.006;4.374;2022-09-24T07:05:29;14.10;99.90
17178;DHT22;8704;52.006;4.374;2022-09-24T07:07:57;14.10;99.90
17178;DHT22;8704;52.006;4.374;2022-09-24T07:10:25;14.10;99.90
17178;DHT22;8704;52.006;4.374;2022-09-24T07:12:53;14.10;99.90
17178;DHT22;8704;52.006;4.374;2022-09-24T07:15:23;14.10;99.90
17178;DHT22;8704;52.006;4.374;2022-09-24T07:17:54;14.10;99.90
17178;DHT22;8704;52.006;4.374;2022-09-24T07:20:22;14.10;99.90
17178;DHT22;8704;52.006;4.374;2022-09-24T07:22:50;14.10;99.90
17178;DHT22;8704;52.006;4.374;2022-09-24T07:25:18;14.10;99.90
17178;DHT22;8704;52.006;4.374;2022-09-24T07:27:46;14.10;99.90
17178;DHT22;8704;52.006;4.374;2022-09-24T07:30:14;14.10;99.90
17178;DHT22;8704;52.006;4.374;2022-09-24T07:32:43;14.70;99.90
17178;DHT22;8704;52.006;4.374;2022-09-24T07:35:11;14.10;99.90
17178;DHT22;8704;52.006;4.374;2022-09-24T07:37:39;14.10;99.90
17178;DHT22;8704;52.006;4.374;2022-09-24T07:40:07;14.10;99.90
17178;DHT22;8704;52.006;4.374;2022-09-24T07:42:36;14.10;99.90
17178;DHT22;8704;52.006;4.374;2022-09-24T07:45:05;14.10;99.90
17178;DHT22;8704;52.006;4.374;2022-09-24T07:47:33;14.10;99.90
17178;DHT22;8704;52.006;4.374;2022-09-24T07:50:04;14.10;99.90
17178;DHT22;8704;52.006;4.374;2022-09-24T07:52:32;14.10;99.90
17178;DHT22;8704;52.006;4.374;2022-09-24T07:55:00;14.10;99.90
17178;DHT22;8704;52.006;4.374;2022-09-24T07:57:28;14.20;99.90
17178;DHT22;8704;52.006;4.374;2022-09-24T07:59:56;14.20;99.90
17178;DHT22;8704;52.006;4.374;2022-09-24T08:02:24;14.20;99.90
17178;DHT22;8704;52.006;4.374;2022-09-24T08:04:51;14.20;99.90
17178;DHT22;8704;52.006;4.374;2022-09-24T08:07:21;14.20;99.90
17178;DHT22;8704;52.006;4.374;2022-09-24T08:09:49;14.20;99.90
17178;DHT22;8704;52.006;4.374;2022-09-24T08:12:17;14.30;99.90
17178;DHT22;8704;52.006;4.374;2022-09-24T08:14:45;14.30;99.90
17178;DHT22;8704;52.006;4.374;2022-09-24T08:17:13;14.30;99.90
17178;DHT22;8704;52.006;4.374;2022-09-24T08:19:41;14.90;99.90
17178;DHT22;8704;52.006;4.374;2022-09-24T08:22:11;14.40;99.90
17178;DHT22;8704;52.006;4.374;2022-09-24T08:24:42;14.40;99.90
17178;DHT22;8704;52.006;4.374;2022-09-24T08:27:10;14.40;99.90
17178;DHT22;8704;52.006;4.374;2022-09-24T08:29:43;14.40;99.90
17178;DHT22;8704;52.006;4.374;2022-09-24T08:32:11;14.40;99.90
17178;DHT22;8704;52.006;4.374;2022-09-24T08:34:39;14.50;99.90
17178;DHT22;8704;52.006;4.374;2022-09-24T08:37:07;14.50;99.90
17178;DHT22;8704;52.006;4.374;2022-09-24T08:39:35;14.50;99.90
17178;DHT22;8704;52.006;4.374;2022-09-24T08:42:05;14.50;99.90
17178;DHT22;8704;52.006;4.374;2022-09-24T08:44:39;14.50;99.90
17178;DHT22;8704;52.006;4.374;2022-09-24T08:47:33;15.20;99.90
17178;DHT22;8704;52.006;4.374;2022-09-24T08:50:07;14.70;99.90
17178;DHT22;8704;52.006;4.374;2022-09-24T08:52:48;14.60;99.90
17178;DHT22;8704;52.006;4.374;2022-09-24T08:55:21;14.60;99.90
17178;DHT22;8704;52.006;4.374;2022-09-24T08:57:59;14.70;99.90
17178;DHT22;8704;52.006;4.374;2022-09-24T09:00:30;14.70;99.90
17178;DHT22;8704;52.006;4.374;2022-09-24T09:03:05;14.80;99.90
17178;DHT22;8704;52.006;4.374;2022-09-24T09:05:48;14.80;99.90
17178;DHT22;8704;52.006;4.374;2022-09-24T09:08:23;14.90;99.90
17178;DHT22;8704;52.006;4.374;2022-09-24T09:11:19;14.90;99.90
17178;DHT22;8704;52.006;4.374;2022-09-24T09:13:51;14.90;99.90
17178;DHT22;8704;52.006;4.374;2022-09-24T09:16:24;15.00;99.90
17178;DHT22;8704;52.006;4.374;2022-09-24T09:18:56;15.00;99.90
17178;DHT22;8704;52.006;4.374;2022-09-24T09:21:30;15.00;99.90
17178;DHT22;8704;52.006;4.374;2022-09-24T09:24:00;15.00;99.90
17178;DHT22;8704;52.006;4.374;2022-09-24T09:26:30;15.10;99.90
17178;DHT22;8704;52.006;4.374;2022-09-24T09:29:00;15.10;99.90
17178;DHT22;8704;52.006;4.374;2022-09-24T09:31:35;15.10;99.90
17178;DHT22;8704;52.006;4.374;2022-09-24T09:34:18;15.20;99.90
17178;DHT22;8704;52.006;4.374;2022-09-24T09:37:03;15.10;99.90
17178;DHT22;8704;52.006;4.374;2022-09-24T09:39:37;15.20;99.90
17178;DHT22;8704;52.006;4.374;2022-09-24T09:42:22;15.30;99.90
17178;DHT22;8704;52.006;4.374;2022-09-24T09:44:53;15.60;99.90
17178;DHT22;8704;52.006;4.374;2022-09-24T09:47:28;15.40;99.90
17178;DHT22;8704;52.006;4.374;2022-09-24T09:50:04;15.40;99.90
17178;DHT22;8704;52.006;4.374;2022-09-24T09:52:35;15.30;99.90
17178;DHT22;8704;52.006;4.374;2022-09-24T09:55:06;15.30;99.90
17178;DHT22;8704;52.006;4.374;2022-09-24T09:57:34;15.30;99.90
17178;DHT22;8704;52.006;4.374;2022-09-24T10:00:05;15.30;99.90
17178;DHT22;8704;52.006;4.374;2022-09-24T10:02:42;15.20;99.90
17178;DHT22;8704;52.006;4.374;2022-09-24T10:05:18;15.20;99.90
17178;DHT22;8704;52.006;4.374;2022-09-24T10:07:53;15.20;99.90
17178;DHT22;8704;52.006;4.374;2022-09-24T10:10:22;15.30;99.90
17178;DHT22;8704;52.006;4.374;2022-09-24T10:12:52;15.30;99.90
17178;DHT22;8704;52.006;4.374;2022-09-24T10:15:22;15.20;99.90
17178;DHT22;8704;52.006;4.374;2022-09-24T10:17:53;15.40;99.90
17178;DHT22;8704;52.006;4.374;2022-09-24T10:20:23;15.20;99.90
17178;DHT22;8704;52.006;4.374;2022-09-24T10:22:55;15.20;99.90
17178;DHT22;8704;52.006;4.374;2022-09-24T10:25:26;15.30;99.90
17178;DHT22;8704;52.006;4.374;2022-09-24T10:27:56;15.30;99.90
17178;DHT22;8704;52.006;4.374;2022-09-24T10:30:59;15.30;99.90
17178;DHT22;8704;52.006;4.374;2022-09-24T10:33:34;15.20;99.90
17178;DHT22;8704;52.006;4.374;2022-09-24T10:36:05;15.30;99.90
17178;DHT22;8704;52.006;4.374;2022-09-24T10:38:33;15.30;99.90
17178;DHT22;8704;52.006;4.374;2022-09-24T10:41:15;15.30;99.90
17178;DHT22;8704;52.006;4.374;2022-09-24T10:43:50;15.30;99.90
17178;DHT22;8704;52.006;4.374;2022-09-24T10:46:34;15.30;99.90
17178;DHT22;8704;52.006;4.374;2022-09-24T10:49:13;15.30;99.90
17178;DHT22;8704;52.006;4.374;2022-09-24T10:51:50;15.40;99.90
17178;DHT22;8704;52.006;4.374;2022-09-24T10:54:34;15.40;99.90
17178;DHT22;8704;52.006;4.374;2022-09-24T10:57:13;15.50;99.90
17178;DHT22;8704;52.006;4.374;2022-09-24T10:59:55;15.60;99.90
17178;DHT22;8704;52.006;4.374;2022-09-24T11:02:39;15.50;99.90
17178;DHT22;8704;52.006;4.374;2022-09-24T11:05:16;15.50;99.90
17178;DHT22;8704;52.006;4.374;2022-09-24T11:08:02;15.60;99.90
17178;DHT22;8704;52.006;4.374;2022-09-24T11:10:52;15.50;99.90
17178;DHT22;8704;52.006;4.374;2022-09-24T11:13:26;15.40;99.90
17178;DHT22;8704;52.006;4.374;2022-09-24T11:16:28;15.40;99.90
17178;DHT22;8704;52.006;4.374;2022-09-24T11:19:08;15.40;99.90
17178;DHT22;8704;52.006;4.374;2022-09-24T11:21:57;15.50;99.90
17178;DHT22;8704;52.006;4.374;2022-09-24T11:24:37;15.50;99.90
17178;DHT22;8704;52.006;4.374;2022-09-24T11:27:32;15.40;99.90
17178;DHT22;8704;52.006;4.374;2022-09-24T11:30:08;15.40;99.90
17178;DHT22;8704;52.006;4.374;2022-09-24T11:32:47;15.40;99.90
17178;DHT22;8704;52.006;4.374;2022-09-24T11:35:33;15.50;99.90
17178;DHT22;8704;52.006;4.374;2022-09-24T11:38:08;15.50;99.90
17178;DHT22;8704;52.006;4.374;2022-09-24T11:40:47;15.50;99.90
17178;DHT22;8704;52.006;4.374;2022-09-24T11:43:53;15.50;99.90
17178;DHT22;8704;52.006;4.374;2022-09-24T11:46:40;15.60;99.90
17178;DHT22;8704;52.006;4.374;2022-09-24T11:52:08;15.60;99.90
17178;DHT22;8704;52.006;4.374;2022-09-24T11:54:44;15.60;99.90
17178;DHT22;8704;52.006;4.374;2022-09-24T11:57:18;15.90;99.90
17178;DHT22;8704;52.006;4.374;2022-09-24T11:59:52;15.70;99.90
17178;DHT22;8704;52.006;4.374;2022-09-24T12:02:27;15.80;99.90
17178;DHT22;8704;52.006;4.374;2022-09-24T12:05:01;15.70;99.90
17178;DHT22;8704;52.006;4.374;2022-09-24T12:07:37;16.00;99.90
17178;DHT22;8704;52.006;4.374;2022-09-24T12:10:23;15.60;99.90
17178;DHT22;8704;52.006;4.374;2022-09-24T12:12:55;15.60;99.90
17178;DHT22;8704;52.006;4.374;2022-09-24T12:15:26;15.70;99.90
17178;DHT22;8704;52.006;4.374;2022-09-24T12:17:58;15.70;99.90
17178;DHT22;8704;52.006;4.374;2022-09-24T12:20:28;15.80;99.90
17178;DHT22;8704;52.006;4.374;2022-09-24T12:23:01;15.80;99.90
17178;DHT22;8704;52.006;4.374;2022-09-24T12:25:38;15.90;99.90
17178;DHT22;8704;52.006;4.374;2022-09-24T12:28:10;15.90;99.90
17178;DHT22;8704;52.006;4.374;2022-09-24T12:30:43;15.90;99.90
17178;DHT22;8704;52.006;4.374;2022-09-24T12:33:42;15.90;99.90
17178;DHT22;8704;52.006;4.374;2022-09-24T12:36:16;16.10;99.90
17178;DHT22;8704;52.006;4.374;2022-09-24T12:38:51;15.90;99.90
17178;DHT22;8704;52.006;4.374;2022-09-24T12:41:25;15.90;99.90
17178;DHT22;8704;52.006;4.374;2022-09-24T12:43:58;15.90;99.90
17178;DHT22;8704;52.006;4.374;2022-09-24T12:46:33;16.00;99.90
17178;DHT22;8704;52.006;4.374;2022-09-24T12:49:01;16.20;99.90
17178;DHT22;8704;52.006;4.374;2022-09-24T12:51:35;16.10;99.90
17178;DHT22;8704;52.006;4.374;2022-09-24T12:54:21;16.10;99.90
17178;DHT22;8704;52.006;4.374;2022-09-24T12:57:02;16.20;99.90
17178;DHT22;8704;52.006;4.374;2022-09-24T12:59:31;16.30;99.90
17178;DHT22;8704;52.006;4.374;2022-09-24T13:02:11;16.40;99.90
17178;DHT22;8704;52.006;4.374;2022-09-24T13:04:42;16.40;99.90
17178;DHT22;8704;52.006;4.374;2022-09-24T13:07:27;16.40;99.90
17178;DHT22;8704;52.006;4.374;2022-09-24T13:09:56;16.50;99.90
17178;DHT22;8704;52.006;4.374;2022-09-24T13:12:31;16.50;99.90
17178;DHT22;8704;52.006;4.374;2022-09-24T13:15:02;16.60;99.90
17178;DHT22;8704;52.006;4.374;2022-09-24T13:17:31;16.80;99.90
17178;DHT22;8704;52.006;4.374;2022-09-24T13:20:04;16.80;99.90
17178;DHT22;8704;52.006;4.374;2022-09-24T13:22:34;17.00;99.90
17178;DHT22;8704;52.006;4.374;2022-09-24T13:25:20;16.90;99.90
17178;DHT22;8704;52.006;4.374;2022-09-24T13:28:00;17.00;99.90
17178;DHT22;8704;52.006;4.374;2022-09-24T13:30:35;16.90;99.90
17178;DHT22;8704;52.006;4.374;2022-09-24T13:33:15;17.20;99.90
17178;DHT22;8704;52.006;4.374;2022-09-24T13:35:49;17.10;99.90
17178;DHT22;8704;52.006;4.374;2022-09-24T13:38:21;17.00;99.90
17178;DHT22;8704;52.006;4.374;2022-09-24T13:40:55;17.10;99.90
17178;DHT22;8704;52.006;4.374;2022-09-24T13:43:37;17.10;99.90
17178;DHT22;8704;52.006;4.374;2022-09-24T13:46:12;17.10;99.90
17178;DHT22;8704;52.006;4.374;2022-09-24T13:48:44;17.20;99.90
17178;DHT22;8704;52.006;4.374;2022-09-24T13:51:15;17.20;99.90
17178;DHT22;8704;52.006;4.374;2022-09-24T13:53:47;17.30;99.90
17178;DHT22;8704;52.006;4.374;2022-09-24T13:56:18;17.30;99.90
17178;DHT22;8704;52.006;4.374;2022-09-24T13:58:47;17.20;99.90
17178;DHT22;8704;52.006;4.374;2022-09-24T14:01:19;17.20;99.90
17178;DHT22;8704;52.006;4.374;2022-09-24T14:03:53;17.20;99.90
17178;DHT22;8704;52.006;4.374;2022-09-24T14:06:34;17.20;99.90
17178;DHT22;8704;52.006;4.374;2022-09-24T14:09:14;17.20;99.90
17178;DHT22;8704;52.006;4.374;2022-09-24T14:11:49;17.20;99.90
17178;DHT22;8704;52.006;4.374;2022-09-24T14:14:19;17.30;99.90
17178;DHT22;8704;52.006;4.374;2022-09-24T14:16:47;17.30;99.90
17178;DHT22;8704;52.006;4.374;2022-09-24T14:19:16;17.30;99.90
17178;DHT22;8704;52.006;4.374;2022-09-24T14:21:46;17.40;99.90
17178;DHT22;8704;52.006;4.374;2022-09-24T14:24:18;17.40;99.90
17178;DHT22;8704;52.006;4.374;2022-09-24T14:26:51;17.40;99.90
17178;DHT22;8704;52.006;4.374;2022-09-24T14:29:24;17.50;99.90
17178;DHT22;8704;52.006;4.374;2022-09-24T14:31:55;17.50;99.90
17178;DHT22;8704;52.006;4.374;2022-09-24T14:34:26;17.60;99.90
17178;DHT22;8704;52.006;4.374;2022-09-24T14:36:56;17.60;99.90
17178;DHT22;8704;52.006;4.374;2022-09-24T14:39:27;17.60;99.90
17178;DHT22;8704;52.006;4.374;2022-09-24T14:41:57;17.80;99.90
17178;DHT22;8704;52.006;4.374;2022-09-24T14:44:27;17.90;99.90
17178;DHT22;8704;52.006;4.374;2022-09-24T14:46:57;18.00;99.90
17178;DHT22;8704;52.006;4.374;2022-09-24T14:49:28;17.90;99.90
17178;DHT22;8704;52.006;4.374;2022-09-24T14:51:57;18.00;99.90
17178;DHT22;8704;52.006;4.374;2022-09-24T14:54:29;18.00;99.90
17178;DHT22;8704;52.006;4.374;2022-09-24T14:57:10;18.20;99.90
17178;DHT22;8704;52.006;4.374;2022-09-24T14:59:38;18.30;99.90
17178;DHT22;8704;52.006;4.374;2022-09-24T15:02:15;18.30;52.60
17178;DHT22;8704;52.006;4.374;2022-09-24T15:04:45;18.30;17.70
17178;DHT22;8704;52.006;4.374;2022-09-24T15:07:16;18.40;34.70
17178;DHT22;8704;52.006;4.374;2022-09-24T15:09:49;18.30;6.60
17178;DHT22;8704;52.006;4.374;2022-09-24T15:12:21;18.40;2.10
17178;DHT22;8704;52.006;4.374;2022-09-24T15:14:58;18.40;32.10
17178;DHT22;8704;52.006;4.374;2022-09-24T15:17:29;18.50;10.90
17178;DHT22;8704;52.006;4.374;2022-09-24T15:19:57;18.40;22.20
17178;DHT22;8704;52.006;4.374;2022-09-24T15:22:26;18.40;29.30
17178;DHT22;8704;52.006;4.374;2022-09-24T15:24:55;18.20;6.70
17178;DHT22;8704;52.006;4.374;2022-09-24T15:27:31;18.20;6.50
17178;DHT22;8704;52.006;4.374;2022-09-24T15:30:00;18.20;22.50
17178;DHT22;8704;52.006;4.374;2022-09-24T15:32:31;18.20;66.40
17178;DHT22;8704;52.006;4.374;2022-09-24T15:35:00;18.20;45.80
17178;DHT22;8704;52.006;4.374;2022-09-24T15:37:33;18.20;42.60
17178;DHT22;8704;52.006;4.374;2022-09-24T15:40:06;18.20;45.60
17178;DHT22;8704;52.006;4.374;2022-09-24T15:42:36;18.10;43.50
17178;DHT22;8704;52.006;4.374;2022-09-24T15:45:12;18.30;56.20
17178;DHT22;8704;52.006;4.374;2022-09-24T15:47:41;18.00;64.40
17178;DHT22;8704;52.006;4.374;2022-09-24T15:50:10;17.90;44.40
17178;DHT22;8704;52.006;4.374;2022-09-24T15:52:43;17.80;64.20
17178;DHT22;8704;52.006;4.374;2022-09-24T15:55:14;17.80;76.30
17178;DHT22;8704;52.006;4.374;2022-09-24T15:57:45;17.80;67.10
17178;DHT22;8704;52.006;4.374;2022-09-24T16:00:15;17.70;61.50
17178;DHT22;8704;52.006;4.374;2022-09-24T16:02:46;17.60;92.00
17178;DHT22;8704;52.006;4.374;2022-09-24T16:05:16;17.70;99.20
17178;DHT22;8704;52.006;4.374;2022-09-24T16:07:44;17.60;64.40
17178;DHT22;8704;52.006;4.374;2022-09-24T16:10:13;17.50;99.90
17178;DHT22;8704;52.006;4.374;2022-09-24T16:12:41;17.40;65.90
17178;DHT22;8704;52.006;4.374;2022-09-24T16:15:13;17.40;97.80
17178;DHT22;8704;52.006;4.374;2022-09-24T16:17:42;17.50;32.60
17178;DHT22;8704;52.006;4.374;2022-09-24T16:20:10;17.30;35.80
17178;DHT22;8704;52.006;4.374;2022-09-24T16:22:38;17.20;59.40